sensor_id;sensor_type;location;lat;lon;timestamp;P1;durP1;ratioP1;P2;durP2;ratioP2
62848;SDS011;48941;49.516;8.286;2023-04-09T00:02:26;9.52;;;6.22;;
62848;SDS011;48941;49.516;8.286;2023-04-09T00:04:55;8.57;;;5.90;;
62848;SDS011;48941;49.516;8.286;2023-04-09T00:07:23;7.25;;;5.53;;
62848;SDS011;48941;49.516;8.286;2023-04-09T00:09:50;9.07;;;6.35;;
62848;SDS011;48941;49.516;8.286;2023-04-09T00:12:18;8.88;;;6.03;;
62848;SDS011;48941;49.516;8.286;2023-04-09T00:14:46;8.02;;;6.20;;
62848;SDS011;48941;49.516;8.286;2023-04-09T00:17:13;9.30;;;6.47;;
62848;SDS011;48941;49.516;8.286;2023-04-09T00:19:41;8.98;;;6.45;;
62848;SDS011;48941;49.516;8.286;2023-04-09T00:22:10;7.45;;;5.55;;
62848;SDS011;48941;49.516;8.286;2023-04-09T00:24:38;9.15;;;5.88;;
62848;SDS011;48941;49.516;8.286;2023-04-09T00:27:06;9.60;;;6.75;;
62848;SDS011;48941;49.516;8.286;2023-04-09T00:29:33;10.05;;;6.45;;
62848;SDS011;48941;49.516;8.286;2023-04-09T00:32:01;8.85;;;6.10;;
62848;SDS011;48941;49.516;8.286;2023-04-09T00:34:29;10.63;;;6.05;;
62848;SDS011;48941;49.516;8.286;2023-04-09T00:36:57;11.25;;;6.30;;
62848;SDS011;48941;49.516;8.286;2023-04-09T00:39:26;9.60;;;6.00;;
62848;SDS011;48941;49.516;8.286;2023-04-09T00:41:57;8.73;;;5.70;;
62848;SDS011;48941;49.516;8.286;2023-04-09T00:44:25;9.75;;;6.30;;
62848;SDS011;48941;49.516;8.286;2023-04-09T00:46:52;9.52;;;6.20;;
62848;SDS011;48941;49.516;8.286;2023-04-09T00:49:21;10.98;;;6.53;;
62848;SDS011;48941;49.516;8.286;2023-04-09T00:51:50;9.23;;;6.32;;
62848;SDS011;48941;49.516;8.286;2023-04-09T00:54:18;8.73;;;6.22;;
62848;SDS011;48941;49.516;8.286;2023-04-09T00:56:47;10.98;;;6.03;;
62848;SDS011;48941;49.516;8.286;2023-04-09T00:59:14;9.20;;;6.15;;
62848;SDS011;48941;49.516;8.286;2023-04-09T01:01:42;9.48;;;6.25;;
62848;SDS011;48941;49.516;8.286;2023-04-09T01:04:10;10.30;;;6.72;;
62848;SDS011;48941;49.516;8.286;2023-04-09T01:06:39;10.73;;;6.15;;
62848;SDS011;48941;49.516;8.286;2023-04-09T01:09:13;10.80;;;6.38;;
62848;SDS011;48941;49.516;8.286;2023-04-09T01:11:52;9.98;;;6.30;;
62848;SDS011;48941;49.516;8.286;2023-04-09T01:14:29;9.32;;;6.30;;
62848;SDS011;48941;49.516;8.286;2023-04-09T01:17:02;10.45;;;6.30;;
62848;SDS011;48941;49.516;8.286;2023-04-09T01:19:34;9.65;;;6.13;;
62848;SDS011;48941;49.516;8.286;2023-04-09T01:22:09;9.50;;;6.22;;
62848;SDS011;48941;49.516;8.286;2023-04-09T01:24:52;10.95;;;6.82;;
62848;SDS011;48941;49.516;8.286;2023-04-09T01:27:33;9.25;;;6.30;;
62848;SDS011;48941;49.516;8.286;2023-04-09T01:30:11;10.63;;;6.57;;
62848;SDS011;48941;49.516;8.286;2023-04-09T01:32:42;9.88;;;6.80;;
62848;SDS011;48941;49.516;8.286;2023-04-09T01:35:11;9.38;;;6.38;;
62848;SDS011;48941;49.516;8.286;2023-04-09T01:37:39;8.95;;;6.20;;
62848;SDS011;48941;49.516;8.286;2023-04-09T01:40:08;9.05;;;6.43;;
62848;SDS011;48941;49.516;8.286;2023-04-09T01:42:36;10.23;;;6.90;;
62848;SDS011;48941;49.516;8.286;2023-04-09T01:45:05;10.57;;;6.82;;
62848;SDS011;48941;49.516;8.286;2023-04-09T01:47:35;13.30;;;6.85;;
62848;SDS011;48941;49.516;8.286;2023-04-09T01:50:05;11.30;;;6.60;;
62848;SDS011;48941;49.516;8.286;2023-04-09T01:52:33;12.00;;;7.53;;
62848;SDS011;48941;49.516;8.286;2023-04-09T01:55:02;9.77;;;6.55;;
62848;SDS011;48941;49.516;8.286;2023-04-09T01:57:30;10.68;;;6.82;;
62848;SDS011;48941;49.516;8.286;2023-04-09T01:59:58;11.35;;;7.25;;
62848;SDS011;48941;49.516;8.286;2023-04-09T02:02:27;10.60;;;7.10;;
62848;SDS011;48941;49.516;8.286;2023-04-09T02:05:04;10.40;;;6.75;;
62848;SDS011;48941;49.516;8.286;2023-04-09T02:07:37;11.43;;;7.35;;
62848;SDS011;48941;49.516;8.286;2023-04-09T02:10:08;11.02;;;6.75;;
62848;SDS011;48941;49.516;8.286;2023-04-09T02:12:38;10.30;;;7.10;;
62848;SDS011;48941;49.516;8.286;2023-04-09T02:15:09;10.23;;;6.88;;
62848;SDS011;48941;49.516;8.286;2023-04-09T02:17:37;10.50;;;6.75;;
62848;SDS011;48941;49.516;8.286;2023-04-09T02:20:08;10.45;;;7.40;;
62848;SDS011;48941;49.516;8.286;2023-04-09T02:22:37;10.05;;;6.93;;
62848;SDS011;48941;49.516;8.286;2023-04-09T02:25:05;10.65;;;7.00;;
62848;SDS011;48941;49.516;8.286;2023-04-09T02:27:33;10.05;;;6.45;;
62848;SDS011;48941;49.516;8.286;2023-04-09T02:30:01;11.48;;;7.28;;
62848;SDS011;48941;49.516;8.286;2023-04-09T02:32:29;8.70;;;6.45;;
62848;SDS011;48941;49.516;8.286;2023-04-09T02:34:56;13.20;;;7.22;;
62848;SDS011;48941;49.516;8.286;2023-04-09T02:37:25;10.90;;;6.85;;
62848;SDS011;48941;49.516;8.286;2023-04-09T02:39:53;9.98;;;6.85;;
62848;SDS011;48941;49.516;8.286;2023-04-09T02:42:21;10.95;;;7.68;;
62848;SDS011;48941;49.516;8.286;2023-04-09T02:44:48;9.55;;;6.57;;
62848;SDS011;48941;49.516;8.286;2023-04-09T02:47:16;13.18;;;8.00;;
62848;SDS011;48941;49.516;8.286;2023-04-09T02:49:44;11.40;;;7.38;;
62848;SDS011;48941;49.516;8.286;2023-04-09T02:52:11;10.48;;;7.30;;
62848;SDS011;48941;49.516;8.286;2023-04-09T02:54:40;10.63;;;7.03;;
62848;SDS011;48941;49.516;8.286;2023-04-09T02:57:08;12.82;;;7.32;;
62848;SDS011;48941;49.516;8.286;2023-04-09T02:59:36;11.80;;;7.95;;
62848;SDS011;48941;49.516;8.286;2023-04-09T03:02:04;12.63;;;7.50;;
62848;SDS011;48941;49.516;8.286;2023-04-09T03:04:32;11.43;;;7.60;;
62848;SDS011;48941;49.516;8.286;2023-04-09T03:06:59;10.32;;;7.18;;
62848;SDS011;48941;49.516;8.286;2023-04-09T03:09:27;11.90;;;7.78;;
62848;SDS011;48941;49.516;8.286;2023-04-09T03:11:56;13.43;;;7.70;;
62848;SDS011;48941;49.516;8.286;2023-04-09T03:14:24;12.13;;;7.50;;
62848;SDS011;48941;49.516;8.286;2023-04-09T03:16:52;11.95;;;7.38;;
62848;SDS011;48941;49.516;8.286;2023-04-09T03:19:19;11.52;;;7.78;;
62848;SDS011;48941;49.516;8.286;2023-04-09T03:21:47;13.90;;;7.93;;
62848;SDS011;48941;49.516;8.286;2023-04-09T03:24:16;11.32;;;7.68;;
62848;SDS011;48941;49.516;8.286;2023-04-09T03:26:44;12.98;;;7.50;;
62848;SDS011;48941;49.516;8.286;2023-04-09T03:29:13;14.25;;;8.07;;
62848;SDS011;48941;49.516;8.286;2023-04-09T03:31:40;11.20;;;7.57;;
62848;SDS011;48941;49.516;8.286;2023-04-09T03:34:08;11.60;;;8.20;;
62848;SDS011;48941;49.516;8.286;2023-04-09T03:36:36;12.73;;;7.93;;
62848;SDS011;48941;49.516;8.286;2023-04-09T03:39:04;13.23;;;7.70;;
62848;SDS011;48941;49.516;8.286;2023-04-09T03:41:31;11.85;;;7.72;;
62848;SDS011;48941;49.516;8.286;2023-04-09T03:43:59;10.50;;;7.25;;
62848;SDS011;48941;49.516;8.286;2023-04-09T03:46:28;12.25;;;7.55;;
62848;SDS011;48941;49.516;8.286;2023-04-09T03:48:56;10.90;;;7.50;;
62848;SDS011;48941;49.516;8.286;2023-04-09T03:51:24;10.65;;;7.20;;
62848;SDS011;48941;49.516;8.286;2023-04-09T03:53:52;13.38;;;7.95;;
62848;SDS011;48941;49.516;8.286;2023-04-09T03:56:20;11.68;;;7.63;;
62848;SDS011;48941;49.516;8.286;2023-04-09T03:58:47;11.18;;;7.75;;
62848;SDS011;48941;49.516;8.286;2023-04-09T04:01:16;13.70;;;7.80;;
62848;SDS011;48941;49.516;8.286;2023-04-09T04:03:44;11.77;;;7.68;;
62848;SDS011;48941;49.516;8.286;2023-04-09T04:06:13;11.57;;;7.13;;
62848;SDS011;48941;49.516;8.286;2023-04-09T04:08:40;12.65;;;8.05;;
62848;SDS011;48941;49.516;8.286;2023-04-09T04:11:09;13.93;;;8.88;;
62848;SDS011;48941;49.516;8.286;2023-04-09T04:13:37;12.65;;;7.53;;
62848;SDS011;48941;49.516;8.286;2023-04-09T04:16:05;11.95;;;7.75;;
62848;SDS011;48941;49.516;8.286;2023-04-09T04:18:34;13.38;;;7.60;;
62848;SDS011;48941;49.516;8.286;2023-04-09T04:21:03;12.68;;;8.13;;
62848;SDS011;48941;49.516;8.286;2023-04-09T04:23:32;12.05;;;7.40;;
62848;SDS011;48941;49.516;8.286;2023-04-09T04:26:00;12.68;;;7.53;;
62848;SDS011;48941;49.516;8.286;2023-04-09T04:28:28;13.00;;;7.93;;
62848;SDS011;48941;49.516;8.286;2023-04-09T04:30:56;11.95;;;7.90;;
62848;SDS011;48941;49.516;8.286;2023-04-09T04:33:23;13.05;;;7.75;;
62848;SDS011;48941;49.516;8.286;2023-04-09T04:35:51;13.35;;;7.90;;
62848;SDS011;48941;49.516;8.286;2023-04-09T04:38:20;11.50;;;7.35;;
62848;SDS011;48941;49.516;8.286;2023-04-09T04:40:48;12.75;;;7.80;;
62848;SDS011;48941;49.516;8.286;2023-04-09T04:43:16;11.82;;;7.75;;
62848;SDS011;48941;49.516;8.286;2023-04-09T04:45:43;12.73;;;8.15;;
62848;SDS011;48941;49.516;8.286;2023-04-09T04:48:11;11.88;;;7.72;;
62848;SDS011;48941;49.516;8.286;2023-04-09T04:50:39;14.98;;;8.88;;
62848;SDS011;48941;49.516;8.286;2023-04-09T04:53:06;12.82;;;8.23;;
62848;SDS011;48941;49.516;8.286;2023-04-09T04:55:36;12.55;;;7.70;;
62848;SDS011;48941;49.516;8.286;2023-04-09T04:58:04;12.70;;;7.85;;
62848;SDS011;48941;49.516;8.286;2023-04-09T05:00:32;13.82;;;7.85;;
62848;SDS011;48941;49.516;8.286;2023-04-09T05:03:00;11.13;;;7.55;;
62848;SDS011;48941;49.516;8.286;2023-04-09T05:05:28;13.27;;;8.30;;
62848;SDS011;48941;49.516;8.286;2023-04-09T05:07:55;15.43;;;8.25;;
62848;SDS011;48941;49.516;8.286;2023-04-09T05:10:23;13.82;;;8.15;;
62848;SDS011;48941;49.516;8.286;2023-04-09T05:12:52;12.10;;;7.75;;
62848;SDS011;48941;49.516;8.286;2023-04-09T05:15:20;13.20;;;7.88;;
62848;SDS011;48941;49.516;8.286;2023-04-09T05:17:48;14.70;;;9.20;;
62848;SDS011;48941;49.516;8.286;2023-04-09T05:20:16;20.17;;;9.05;;
62848;SDS011;48941;49.516;8.286;2023-04-09T05:22:44;12.40;;;8.10;;
62848;SDS011;48941;49.516;8.286;2023-04-09T05:25:11;15.38;;;8.77;;
62848;SDS011;48941;49.516;8.286;2023-04-09T05:27:41;13.48;;;7.85;;
62848;SDS011;48941;49.516;8.286;2023-04-09T05:30:11;14.25;;;8.30;;
62848;SDS011;48941;49.516;8.286;2023-04-09T05:32:39;14.40;;;8.80;;
62848;SDS011;48941;49.516;8.286;2023-04-09T05:35:07;16.77;;;8.75;;
62848;SDS011;48941;49.516;8.286;2023-04-09T05:37:35;16.17;;;8.63;;
62848;SDS011;48941;49.516;8.286;2023-04-09T05:40:03;14.63;;;8.25;;
62848;SDS011;48941;49.516;8.286;2023-04-09T05:42:31;13.70;;;8.60;;
62848;SDS011;48941;49.516;8.286;2023-04-09T05:44:59;14.95;;;8.77;;
62848;SDS011;48941;49.516;8.286;2023-04-09T05:47:28;15.80;;;8.70;;
62848;SDS011;48941;49.516;8.286;2023-04-09T05:49:56;15.77;;;9.10;;
62848;SDS011;48941;49.516;8.286;2023-04-09T05:52:23;12.82;;;8.25;;
62848;SDS011;48941;49.516;8.286;2023-04-09T05:54:52;14.45;;;8.40;;
62848;SDS011;48941;49.516;8.286;2023-04-09T05:57:20;13.98;;;8.88;;
62848;SDS011;48941;49.516;8.286;2023-04-09T05:59:47;14.88;;;8.93;;
62848;SDS011;48941;49.516;8.286;2023-04-09T06:02:15;15.43;;;9.02;;
62848;SDS011;48941;49.516;8.286;2023-04-09T06:04:44;16.95;;;9.23;;
62848;SDS011;48941;49.516;8.286;2023-04-09T06:07:12;16.08;;;9.10;;
62848;SDS011;48941;49.516;8.286;2023-04-09T06:09:40;15.35;;;9.48;;
62848;SDS011;48941;49.516;8.286;2023-04-09T06:12:09;16.63;;;9.68;;
62848;SDS011;48941;49.516;8.286;2023-04-09T06:14:37;14.80;;;8.75;;
62848;SDS011;48941;49.516;8.286;2023-04-09T06:17:04;17.20;;;9.95;;
62848;SDS011;48941;49.516;8.286;2023-04-09T06:19:32;15.27;;;9.30;;
62848;SDS011;48941;49.516;8.286;2023-04-09T06:22:01;16.58;;;10.00;;
62848;SDS011;48941;49.516;8.286;2023-04-09T06:24:29;16.10;;;9.35;;
62848;SDS011;48941;49.516;8.286;2023-04-09T06:26:57;15.38;;;9.02;;
62848;SDS011;48941;49.516;8.286;2023-04-09T06:29:25;14.05;;;8.90;;
62848;SDS011;48941;49.516;8.286;2023-04-09T06:31:53;16.20;;;10.15;;
62848;SDS011;48941;49.516;8.286;2023-04-09T06:34:21;16.92;;;9.73;;
62848;SDS011;48941;49.516;8.286;2023-04-09T06:36:48;17.15;;;9.85;;
62848;SDS011;48941;49.516;8.286;2023-04-09T06:39:17;17.88;;;9.75;;
62848;SDS011;48941;49.516;8.286;2023-04-09T06:41:45;17.77;;;10.00;;
62848;SDS011;48941;49.516;8.286;2023-04-09T06:44:13;16.77;;;10.05;;
62848;SDS011;48941;49.516;8.286;2023-04-09T06:46:41;16.55;;;9.55;;
62848;SDS011;48941;49.516;8.286;2023-04-09T06:49:08;17.38;;;10.52;;
62848;SDS011;48941;49.516;8.286;2023-04-09T06:51:36;18.13;;;9.70;;
62848;SDS011;48941;49.516;8.286;2023-04-09T06:54:04;16.60;;;9.35;;
62848;SDS011;48941;49.516;8.286;2023-04-09T06:56:33;20.50;;;10.07;;
62848;SDS011;48941;49.516;8.286;2023-04-09T06:59:01;17.15;;;10.57;;
62848;SDS011;48941;49.516;8.286;2023-04-09T07:01:29;18.10;;;10.70;;
62848;SDS011;48941;49.516;8.286;2023-04-09T07:03:56;18.40;;;10.95;;
62848;SDS011;48941;49.516;8.286;2023-04-09T07:06:24;16.23;;;9.80;;
62848;SDS011;48941;49.516;8.286;2023-04-09T07:08:52;19.70;;;10.75;;
62848;SDS011;48941;49.516;8.286;2023-04-09T07:11:20;16.38;;;10.30;;
62848;SDS011;48941;49.516;8.286;2023-04-09T07:13:50;18.02;;;10.68;;
62848;SDS011;48941;49.516;8.286;2023-04-09T07:16:18;18.08;;;10.73;;
62848;SDS011;48941;49.516;8.286;2023-04-09T07:18:46;17.42;;;10.48;;
62848;SDS011;48941;49.516;8.286;2023-04-09T07:21:13;23.08;;;11.10;;
62848;SDS011;48941;49.516;8.286;2023-04-09T07:23:41;22.15;;;11.18;;
62848;SDS011;48941;49.516;8.286;2023-04-09T07:26:09;18.42;;;10.48;;
62848;SDS011;48941;49.516;8.286;2023-04-09T07:28:37;19.27;;;11.00;;
62848;SDS011;48941;49.516;8.286;2023-04-09T07:31:06;19.10;;;11.18;;
62848;SDS011;48941;49.516;8.286;2023-04-09T07:33:34;18.10;;;11.13;;
62848;SDS011;48941;49.516;8.286;2023-04-09T07:36:02;20.05;;;11.20;;
62848;SDS011;48941;49.516;8.286;2023-04-09T07:38:31;18.48;;;10.82;;
62848;SDS011;48941;49.516;8.286;2023-04-09T07:41:00;18.83;;;11.05;;
62848;SDS011;48941;49.516;8.286;2023-04-09T07:43:27;19.55;;;11.10;;
62848;SDS011;48941;49.516;8.286;2023-04-09T07:45:55;18.85;;;10.93;;
62848;SDS011;48941;49.516;8.286;2023-04-09T07:48:24;18.77;;;11.15;;
62848;SDS011;48941;49.516;8.286;2023-04-09T07:50:53;19.67;;;11.50;;
62848;SDS011;48941;49.516;8.286;2023-04-09T07:53:21;18.63;;;11.75;;
62848;SDS011;48941;49.516;8.286;2023-04-09T07:55:49;18.25;;;11.68;;
62848;SDS011;48941;49.516;8.286;2023-04-09T07:58:17;19.52;;;11.93;;
62848;SDS011;48941;49.516;8.286;2023-04-09T08:00:44;23.77;;;13.07;;
62848;SDS011;48941;49.516;8.286;2023-04-09T08:03:13;24.80;;;13.48;;
62848;SDS011;48941;49.516;8.286;2023-04-09T08:05:42;20.80;;;12.75;;
62848;SDS011;48941;49.516;8.286;2023-04-09T08:08:10;19.52;;;12.02;;
62848;SDS011;48941;49.516;8.286;2023-04-09T08:10:38;20.30;;;12.43;;
62848;SDS011;48941;49.516;8.286;2023-04-09T08:13:06;18.95;;;12.10;;
62848;SDS011;48941;49.516;8.286;2023-04-09T08:15:36;20.13;;;12.18;;
62848;SDS011;48941;49.516;8.286;2023-04-09T08:18:04;20.85;;;12.35;;
62848;SDS011;48941;49.516;8.286;2023-04-09T08:20:32;18.30;;;12.00;;
62848;SDS011;48941;49.516;8.286;2023-04-09T08:23:01;20.98;;;13.07;;
62848;SDS011;48941;49.516;8.286;2023-04-09T08:25:29;19.73;;;12.68;;
62848;SDS011;48941;49.516;8.286;2023-04-09T08:27:56;18.95;;;12.45;;
62848;SDS011;48941;49.516;8.286;2023-04-09T08:30:24;23.05;;;12.50;;
62848;SDS011;48941;49.516;8.286;2023-04-09T08:32:52;20.63;;;12.50;;
62848;SDS011;48941;49.516;8.286;2023-04-09T08:35:20;20.73;;;12.93;;
62848;SDS011;48941;49.516;8.286;2023-04-09T08:37:48;20.67;;;12.63;;
62848;SDS011;48941;49.516;8.286;2023-04-09T08:40:17;19.90;;;13.02;;
62848;SDS011;48941;49.516;8.286;2023-04-09T08:42:45;20.02;;;12.70;;
62848;SDS011;48941;49.516;8.286;2023-04-09T08:45:19;19.00;;;12.07;;
62848;SDS011;48941;49.516;8.286;2023-04-09T08:47:48;19.52;;;12.57;;
62848;SDS011;48941;49.516;8.286;2023-04-09T08:50:17;19.65;;;12.50;;
62848;SDS011;48941;49.516;8.286;2023-04-09T08:52:46;18.73;;;12.60;;
62848;SDS011;48941;49.516;8.286;2023-04-09T08:55:16;20.55;;;12.55;;
62848;SDS011;48941;49.516;8.286;2023-04-09T08:57:44;18.67;;;12.27;;
62848;SDS011;48941;49.516;8.286;2023-04-09T09:00:12;21.80;;;11.82;;
62848;SDS011;48941;49.516;8.286;2023-04-09T09:03:00;19.50;;;12.13;;
62848;SDS011;48941;49.516;8.286;2023-04-09T09:05:34;16.90;;;11.07;;
62848;SDS011;48941;49.516;8.286;2023-04-09T09:08:03;17.48;;;11.07;;
62848;SDS011;48941;49.516;8.286;2023-04-09T09:10:40;18.05;;;11.23;;
62848;SDS011;48941;49.516;8.286;2023-04-09T09:13:16;17.38;;;10.75;;
62848;SDS011;48941;49.516;8.286;2023-04-09T09:15:44;19.23;;;12.13;;
62848;SDS011;48941;49.516;8.286;2023-04-09T09:18:15;16.65;;;11.38;;
62848;SDS011;48941;49.516;8.286;2023-04-09T09:20:44;18.33;;;12.20;;
62848;SDS011;48941;49.516;8.286;2023-04-09T09:23:12;17.90;;;12.57;;
62848;SDS011;48941;49.516;8.286;2023-04-09T09:25:42;19.88;;;13.02;;
62848;SDS011;48941;49.516;8.286;2023-04-09T09:28:10;20.17;;;12.60;;
62848;SDS011;48941;49.516;8.286;2023-04-09T09:30:39;17.67;;;11.85;;
62848;SDS011;48941;49.516;8.286;2023-04-09T09:33:07;17.65;;;12.50;;
62848;SDS011;48941;49.516;8.286;2023-04-09T09:35:45;20.05;;;12.68;;
62848;SDS011;48941;49.516;8.286;2023-04-09T09:38:15;19.60;;;12.77;;
62848;SDS011;48941;49.516;8.286;2023-04-09T09:40:45;21.65;;;13.32;;
62848;SDS011;48941;49.516;8.286;2023-04-09T09:43:13;23.83;;;13.40;;
62848;SDS011;48941;49.516;8.286;2023-04-09T09:45:41;20.58;;;13.98;;
62848;SDS011;48941;49.516;8.286;2023-04-09T09:48:12;19.45;;;13.25;;
62848;SDS011;48941;49.516;8.286;2023-04-09T09:50:41;20.02;;;13.55;;
62848;SDS011;48941;49.516;8.286;2023-04-09T09:53:12;19.85;;;14.02;;
62848;SDS011;48941;49.516;8.286;2023-04-09T09:55:44;20.17;;;14.30;;
62848;SDS011;48941;49.516;8.286;2023-04-09T09:58:21;20.75;;;13.85;;
62848;SDS011;48941;49.516;8.286;2023-04-09T10:00:54;20.02;;;13.45;;
62848;SDS011;48941;49.516;8.286;2023-04-09T10:03:24;18.98;;;13.75;;
62848;SDS011;48941;49.516;8.286;2023-04-09T10:05:53;20.67;;;14.13;;
62848;SDS011;48941;49.516;8.286;2023-04-09T10:08:22;20.20;;;13.18;;
62848;SDS011;48941;49.516;8.286;2023-04-09T10:10:52;18.40;;;13.20;;
62848;SDS011;48941;49.516;8.286;2023-04-09T10:13:20;22.23;;;14.55;;
62848;SDS011;48941;49.516;8.286;2023-04-09T10:15:54;20.30;;;14.20;;
62848;SDS011;48941;49.516;8.286;2023-04-09T10:18:22;17.83;;;13.00;;
62848;SDS011;48941;49.516;8.286;2023-04-09T10:20:53;18.92;;;13.45;;
62848;SDS011;48941;49.516;8.286;2023-04-09T10:23:27;20.00;;;13.15;;
62848;SDS011;48941;49.516;8.286;2023-04-09T10:26:01;16.25;;;12.27;;
62848;SDS011;48941;49.516;8.286;2023-04-09T10:28:29;17.42;;;12.60;;
62848;SDS011;48941;49.516;8.286;2023-04-09T10:30:57;16.92;;;11.80;;
62848;SDS011;48941;49.516;8.286;2023-04-09T10:33:26;19.08;;;12.98;;
62848;SDS011;48941;49.516;8.286;2023-04-09T10:35:55;12.32;;;9.27;;
62848;SDS011;48941;49.516;8.286;2023-04-09T10:38:33;11.68;;;8.75;;
62848;SDS011;48941;49.516;8.286;2023-04-09T10:41:11;13.82;;;9.82;;
62848;SDS011;48941;49.516;8.286;2023-04-09T10:43:42;13.02;;;9.95;;
62848;SDS011;48941;49.516;8.286;2023-04-09T10:46:25;12.63;;;9.90;;
62848;SDS011;48941;49.516;8.286;2023-04-09T10:49:06;12.98;;;9.15;;
62848;SDS011;48941;49.516;8.286;2023-04-09T10:51:35;13.18;;;9.40;;
62848;SDS011;48941;49.516;8.286;2023-04-09T10:54:04;14.35;;;9.82;;
62848;SDS011;48941;49.516;8.286;2023-04-09T10:56:33;11.75;;;8.88;;
62848;SDS011;48941;49.516;8.286;2023-04-09T10:59:01;12.85;;;9.02;;
62848;SDS011;48941;49.516;8.286;2023-04-09T11:01:29;13.02;;;9.30;;
62848;SDS011;48941;49.516;8.286;2023-04-09T11:04:06;16.35;;;9.60;;
62848;SDS011;48941;49.516;8.286;2023-04-09T11:06:37;13.57;;;10.30;;
62848;SDS011;48941;49.516;8.286;2023-04-09T11:09:07;12.50;;;9.40;;
62848;SDS011;48941;49.516;8.286;2023-04-09T11:11:36;13.43;;;9.45;;
62848;SDS011;48941;49.516;8.286;2023-04-09T11:14:03;11.32;;;8.45;;
62848;SDS011;48941;49.516;8.286;2023-04-09T11:16:31;12.48;;;9.05;;
62848;SDS011;48941;49.516;8.286;2023-04-09T11:18:59;12.07;;;9.40;;
62848;SDS011;48941;49.516;8.286;2023-04-09T11:21:27;10.32;;;8.05;;
62848;SDS011;48941;49.516;8.286;2023-04-09T11:23:54;11.63;;;9.20;;
62848;SDS011;48941;49.516;8.286;2023-04-09T11:26:23;13.80;;;9.18;;
62848;SDS011;48941;49.516;8.286;2023-04-09T11:28:56;12.33;;;9.07;;
62848;SDS011;48941;49.516;8.286;2023-04-09T11:31:27;10.75;;;8.23;;
62848;SDS011;48941;49.516;8.286;2023-04-09T11:33:55;8.32;;;6.68;;
62848;SDS011;48941;49.516;8.286;2023-04-09T11:36:23;8.63;;;6.82;;
62848;SDS011;48941;49.516;8.286;2023-04-09T11:38:52;8.52;;;5.90;;
62848;SDS011;48941;49.516;8.286;2023-04-09T11:41:31;10.10;;;7.40;;
62848;SDS011;48941;49.516;8.286;2023-04-09T11:44:02;8.23;;;6.22;;
62848;SDS011;48941;49.516;8.286;2023-04-09T11:46:31;8.63;;;6.38;;
62848;SDS011;48941;49.516;8.286;2023-04-09T11:49:00;9.93;;;6.53;;
62848;SDS011;48941;49.516;8.286;2023-04-09T11:51:29;7.57;;;6.10;;
62848;SDS011;48941;49.516;8.286;2023-04-09T11:54:00;7.93;;;6.07;;
62848;SDS011;48941;49.516;8.286;2023-04-09T11:56:28;8.32;;;6.15;;
62848;SDS011;48941;49.516;8.286;2023-04-09T11:58:56;9.40;;;6.55;;
62848;SDS011;48941;49.516;8.286;2023-04-09T12:01:29;8.38;;;6.18;;
62848;SDS011;48941;49.516;8.286;2023-04-09T12:03:58;7.82;;;6.25;;
62848;SDS011;48941;49.516;8.286;2023-04-09T12:06:27;9.18;;;6.50;;
62848;SDS011;48941;49.516;8.286;2023-04-09T12:08:55;11.73;;;6.43;;
62848;SDS011;48941;49.516;8.286;2023-04-09T12:11:26;8.68;;;6.45;;
62848;SDS011;48941;49.516;8.286;2023-04-09T12:13:57;8.05;;;6.55;;
62848;SDS011;48941;49.516;8.286;2023-04-09T12:16:28;7.97;;;6.00;;
62848;SDS011;48941;49.516;8.286;2023-04-09T12:18:59;8.68;;;6.53;;
62848;SDS011;48941;49.516;8.286;2023-04-09T12:24:13;7.60;;;6.13;;
62848;SDS011;48941;49.516;8.286;2023-04-09T12:26:42;8.15;;;6.30;;
62848;SDS011;48941;49.516;8.286;2023-04-09T12:29:11;11.77;;;9.18;;
62848;SDS011;48941;49.516;8.286;2023-04-09T12:31:41;8.10;;;6.53;;
62848;SDS011;48941;49.516;8.286;2023-04-09T12:34:10;8.82;;;6.15;;
62848;SDS011;48941;49.516;8.286;2023-04-09T12:36:38;7.90;;;5.82;;
62848;SDS011;48941;49.516;8.286;2023-04-09T12:39:07;8.18;;;5.80;;
62848;SDS011;48941;49.516;8.286;2023-04-09T12:41:35;7.93;;;6.30;;
62848;SDS011;48941;49.516;8.286;2023-04-09T12:44:03;8.15;;;5.68;;
62848;SDS011;48941;49.516;8.286;2023-04-09T12:46:32;8.40;;;6.10;;
62848;SDS011;48941;49.516;8.286;2023-04-09T12:49:01;7.85;;;5.82;;
62848;SDS011;48941;49.516;8.286;2023-04-09T12:51:29;7.88;;;6.32;;
62848;SDS011;48941;49.516;8.286;2023-04-09T12:53:57;7.35;;;5.47;;
62848;SDS011;48941;49.516;8.286;2023-04-09T12:56:24;9.02;;;6.45;;
62848;SDS011;48941;49.516;8.286;2023-04-09T12:58:55;9.48;;;6.90;;
62848;SDS011;48941;49.516;8.286;2023-04-09T13:01:22;7.35;;;5.72;;
62848;SDS011;48941;49.516;8.286;2023-04-09T13:03:50;6.90;;;5.47;;
62848;SDS011;48941;49.516;8.286;2023-04-09T13:06:20;8.55;;;5.15;;
62848;SDS011;48941;49.516;8.286;2023-04-09T13:08:48;7.72;;;6.03;;
62848;SDS011;48941;49.516;8.286;2023-04-09T13:11:16;8.60;;;6.20;;
62848;SDS011;48941;49.516;8.286;2023-04-09T13:13:44;6.70;;;5.53;;
62848;SDS011;48941;49.516;8.286;2023-04-09T13:16:12;8.45;;;5.38;;
62848;SDS011;48941;49.516;8.286;2023-04-09T13:18:39;7.38;;;5.60;;
62848;SDS011;48941;49.516;8.286;2023-04-09T13:21:07;7.28;;;4.90;;
62848;SDS011;48941;49.516;8.286;2023-04-09T13:23:36;10.13;;;7.18;;
62848;SDS011;48941;49.516;8.286;2023-04-09T13:26:04;11.85;;;7.70;;
62848;SDS011;48941;49.516;8.286;2023-04-09T13:28:32;11.05;;;7.25;;
62848;SDS011;48941;49.516;8.286;2023-04-09T13:31:00;9.05;;;6.00;;
62848;SDS011;48941;49.516;8.286;2023-04-09T13:33:28;8.98;;;6.95;;
62848;SDS011;48941;49.516;8.286;2023-04-09T13:35:56;10.73;;;5.75;;
62848;SDS011;48941;49.516;8.286;2023-04-09T13:38:24;5.20;;;4.70;;
62848;SDS011;48941;49.516;8.286;2023-04-09T13:40:53;9.65;;;6.85;;
62848;SDS011;48941;49.516;8.286;2023-04-09T13:43:21;8.85;;;5.82;;
62848;SDS011;48941;49.516;8.286;2023-04-09T13:45:53;6.57;;;4.87;;
62848;SDS011;48941;49.516;8.286;2023-04-09T13:48:21;6.55;;;5.57;;
62848;SDS011;48941;49.516;8.286;2023-04-09T13:50:48;7.03;;;4.50;;
62848;SDS011;48941;49.516;8.286;2023-04-09T13:53:16;5.53;;;4.35;;
62848;SDS011;48941;49.516;8.286;2023-04-09T13:55:44;5.95;;;4.20;;
62848;SDS011;48941;49.516;8.286;2023-04-09T13:58:13;4.97;;;4.10;;
62848;SDS011;48941;49.516;8.286;2023-04-09T14:00:41;4.88;;;3.97;;
62848;SDS011;48941;49.516;8.286;2023-04-09T14:03:09;4.70;;;4.20;;
62848;SDS011;48941;49.516;8.286;2023-04-09T14:05:38;5.47;;;4.47;;
62848;SDS011;48941;49.516;8.286;2023-04-09T14:08:06;5.15;;;4.32;;
62848;SDS011;48941;49.516;8.286;2023-04-09T14:10:34;6.05;;;4.63;;
62848;SDS011;48941;49.516;8.286;2023-04-09T14:13:02;5.15;;;4.60;;
62848;SDS011;48941;49.516;8.286;2023-04-09T14:15:33;5.15;;;4.35;;
62848;SDS011;48941;49.516;8.286;2023-04-09T14:18:01;5.43;;;4.80;;
62848;SDS011;48941;49.516;8.286;2023-04-09T14:20:29;4.93;;;3.95;;
62848;SDS011;48941;49.516;8.286;2023-04-09T14:22:57;5.25;;;4.00;;
62848;SDS011;48941;49.516;8.286;2023-04-09T14:25:26;5.97;;;5.03;;
62848;SDS011;48941;49.516;8.286;2023-04-09T14:27:53;4.95;;;4.22;;
62848;SDS011;48941;49.516;8.286;2023-04-09T14:30:22;7.00;;;5.00;;
62848;SDS011;48941;49.516;8.286;2023-04-09T14:32:51;4.40;;;3.80;;
62848;SDS011;48941;49.516;8.286;2023-04-09T14:35:18;5.20;;;3.90;;
62848;SDS011;48941;49.516;8.286;2023-04-09T14:37:46;4.93;;;4.35;;
62848;SDS011;48941;49.516;8.286;2023-04-09T14:40:14;4.38;;;3.97;;
62848;SDS011;48941;49.516;8.286;2023-04-09T14:42:42;5.55;;;4.43;;
62848;SDS011;48941;49.516;8.286;2023-04-09T14:45:10;5.13;;;4.18;;
62848;SDS011;48941;49.516;8.286;2023-04-09T14:47:37;4.22;;;3.70;;
62848;SDS011;48941;49.516;8.286;2023-04-09T14:50:07;4.80;;;3.80;;